createdAt,value
2022-12-01T00:01:02.655Z,-0.59
2022-12-01T00:03:33.184Z,-0.61
2022-12-01T00:06:15.424Z,-0.61
2022-12-01T00:09:01.253Z,-0.58
2022-12-01T00:11:27.738Z,-0.57
2022-12-01T00:13:54.113Z,-0.51
2022-12-01T00:16:21.015Z,-0.48
2022-12-01T00:18:50.879Z,-0.40
2022-12-01T00:21:19.332Z,-0.37
2022-12-01T00:23:47.444Z,-0.40
2022-12-01T00:26:15.210Z,-0.27
2022-12-01T00:28:41.717Z,-0.22
2022-12-01T00:31:09.242Z,-0.17
2022-12-01T00:33:35.723Z,-0.23
2022-12-01T00:36:02.258Z,-0.10
2022-12-01T00:38:28.744Z,-0.02
2022-12-01T00:40:55.401Z,-0.01
2022-12-01T00:43:21.818Z,0.02
2022-12-01T00:45:48.358Z,0.06
2022-12-01T00:48:14.897Z,0.02
2022-12-01T00:50:41.684Z,-0.02
2022-12-01T00:53:08.501Z,-0.08
2022-12-01T00:55:35.189Z,-0.15
2022-12-01T00:58:01.581Z,-0.17
2022-12-01T01:03:07.601Z,-0.21
2022-12-01T01:05:42.014Z,-0.24
2022-12-01T01:08:13.620Z,-0.25
2022-12-01T01:10:41.545Z,-0.31
2022-12-01T01:13:08.620Z,-0.35
2022-12-01T01:15:35.654Z,-0.45
2022-12-01T01:18:02.168Z,-0.48
2022-12-01T01:20:29.053Z,-0.50
2022-12-01T01:22:55.623Z,-0.52
2022-12-01T01:25:22.748Z,-0.55
2022-12-01T01:27:49.321Z,-0.59
2022-12-01T01:30:16.131Z,-0.59
2022-12-01T01:32:42.473Z,-0.63
2022-12-01T01:35:08.959Z,-0.66
2022-12-01T01:37:35.292Z,-0.64
2022-12-01T01:40:01.693Z,-0.60
2022-12-01T01:42:28.035Z,-0.62
2022-12-01T01:44:58.709Z,-0.67
2022-12-01T01:47:27.702Z,-0.68
2022-12-01T01:49:56.666Z,-0.70
2022-12-01T01:52:23.550Z,-0.62
2022-12-01T01:54:54.595Z,-0.66
2022-12-01T01:57:26.591Z,-0.68
2022-12-01T02:00:01.221Z,-0.68
2022-12-01T02:02:27.696Z,-0.69
2022-12-01T02:05:01.588Z,-0.70
2022-12-01T02:07:28.550Z,-0.70
2022-12-01T02:09:55.601Z,-0.67
2022-12-01T02:12:41.120Z,-0.68
2022-12-01T02:15:33.401Z,-0.66
2022-12-01T02:18:35.347Z,-0.68
2022-12-01T02:21:29.292Z,-0.74
2022-12-01T02:24:07.568Z,-0.78
2022-12-01T02:26:57.682Z,-0.89
2022-12-01T02:29:42.813Z,-0.93
2022-12-01T02:32:22.001Z,-0.94
2022-12-01T02:35:05.578Z,-1.03
2022-12-01T02:37:35.198Z,-1.11
2022-12-01T02:40:20.443Z,-1.11
2022-12-01T02:43:02.197Z,-1.11
2022-12-01T02:45:40.550Z,-1.11
2022-12-01T02:48:19.126Z,-1.13
2022-12-01T02:50:46.425Z,-1.19
2022-12-01T02:53:18.534Z,-1.16
2022-12-01T02:55:55.794Z,-1.23
2022-12-01T02:58:22.230Z,-1.22
2022-12-01T03:01:01.205Z,-1.17
2022-12-01T03:03:45.022Z,-1.26
2022-12-01T03:06:22.694Z,-1.28
2022-12-01T03:09:15.686Z,-1.23
2022-12-01T03:11:51.442Z,-1.23
2022-12-01T03:14:36.144Z,-1.14
2022-12-01T03:17:11.678Z,-1.03
2022-12-01T03:19:47.168Z,-0.85
2022-12-01T03:22:24.691Z,-0.78
2022-12-01T03:24:55.142Z,-0.65
2022-12-01T03:27:26.850Z,-0.60
2022-12-01T03:29:57.657Z,-0.61
2022-12-01T03:32:29.503Z,-0.58
2022-12-01T03:35:10.923Z,-0.57
2022-12-01T03:37:42.615Z,-0.57
2022-12-01T03:40:14.508Z,-0.61
2022-12-01T03:43:03.972Z,-0.59
2022-12-01T03:45:30.259Z,-0.55
2022-12-01T03:47:57.231Z,-0.52
2022-12-01T03:50:29.891Z,-0.43
2022-12-01T03:53:19.127Z,-0.36
2022-12-01T03:55:51.880Z,-0.26
2022-12-01T03:58:30.596Z,-0.24
2022-12-01T04:00:58.398Z,-0.17
2022-12-01T04:03:26.218Z,-0.16
2022-12-01T04:05:52.707Z,-0.17
2022-12-01T04:08:19.053Z,-0.13
2022-12-01T04:10:45.481Z,-0.08
2022-12-01T04:13:16.792Z,-0.06
2022-12-01T04:15:43.608Z,-0.05
2022-12-01T04:18:10.023Z,-0.04
2022-12-01T04:20:36.363Z,-0.13
2022-12-01T04:23:02.700Z,-0.12
2022-12-01T04:25:29.035Z,-0.14
2022-12-01T04:27:55.345Z,-0.18
2022-12-01T04:30:21.790Z,-0.28
2022-12-01T04:32:48.167Z,-0.36
2022-12-01T04:35:14.486Z,-0.40
2022-12-01T04:37:41.016Z,-0.39
2022-12-01T04:40:08.214Z,-0.46
2022-12-01T04:42:34.601Z,-0.51
2022-12-01T04:45:00.932Z,-0.55
2022-12-01T04:47:27.326Z,-0.65
2022-12-01T04:49:54.386Z,-0.71
2022-12-01T04:52:20.719Z,-0.73
2022-12-01T04:54:47.213Z,-0.72
2022-12-01T04:57:13.618Z,-0.73
2022-12-01T04:59:40.085Z,-0.71
2022-12-01T05:02:06.555Z,-0.66
2022-12-01T05:04:34.101Z,-0.65
2022-12-01T05:07:00.445Z,-0.72
2022-12-01T05:09:26.834Z,-0.74
2022-12-01T05:11:53.182Z,-0.75
2022-12-01T05:14:19.513Z,-0.84
2022-12-01T05:16:45.908Z,-0.90
2022-12-01T05:19:31.149Z,-0.93
2022-12-01T05:21:57.542Z,-0.95
2022-12-01T05:24:23.902Z,-0.96
2022-12-01T05:26:50.344Z,-0.97
2022-12-01T05:29:17.141Z,-0.99
2022-12-01T05:31:45.583Z,-1.02
2022-12-01T05:34:12.011Z,-1.01
2022-12-01T05:36:38.373Z,-1.06
2022-12-01T05:39:05.446Z,-1.01
2022-12-01T05:41:32.072Z,-1.01
2022-12-01T05:43:58.513Z,-1.05
2022-12-01T05:46:24.966Z,-1.09
2022-12-01T05:48:51.356Z,-1.11
2022-12-01T05:51:17.966Z,-1.10
2022-12-01T05:53:44.649Z,-1.11
2022-12-01T05:56:11.152Z,-1.09
2022-12-01T05:58:37.719Z,-1.04
2022-12-01T06:01:04.243Z,-1.02
2022-12-01T06:03:30.815Z,-1.05
2022-12-01T06:05:57.152Z,-1.07
2022-12-01T06:08:23.554Z,-1.12
2022-12-01T06:10:49.956Z,-1.11
2022-12-01T06:13:16.378Z,-1.12
2022-12-01T06:15:42.809Z,-1.12
2022-12-01T06:18:09.352Z,-1.13
2022-12-01T06:20:35.856Z,-1.13
2022-12-01T06:23:02.683Z,-1.14
2022-12-01T06:25:29.085Z,-1.10
2022-12-01T06:27:57.444Z,-1.03
2022-12-01T06:30:24.954Z,-1.01
2022-12-01T06:32:51.370Z,-1.00
2022-12-01T06:35:17.794Z,-0.93
2022-12-01T06:37:44.170Z,-0.89
2022-12-01T06:40:11.409Z,-0.85
2022-12-01T06:42:37.757Z,-0.83
2022-12-01T06:45:04.410Z,-0.81
2022-12-01T06:47:30.885Z,-0.77
2022-12-01T06:49:57.366Z,-0.75
2022-12-01T06:52:23.826Z,-0.71
2022-12-01T06:54:50.248Z,-0.70
2022-12-01T06:57:17.028Z,-0.66
2022-12-01T06:59:43.784Z,-0.64
2022-12-01T07:02:11.200Z,-0.68
2022-12-01T07:04:37.593Z,-0.63
2022-12-01T07:07:07.086Z,-0.58
2022-12-01T07:09:33.796Z,-0.54
2022-12-01T07:12:00.181Z,-0.49
2022-12-01T07:14:27.489Z,-0.44
2022-12-01T07:16:53.897Z,-0.39
2022-12-01T07:19:20.484Z,-0.35
2022-12-01T07:21:46.863Z,-0.30
2022-12-01T07:24:13.610Z,-0.26
2022-12-01T07:26:41.170Z,-0.20
2022-12-01T07:29:09.109Z,-0.17
2022-12-01T07:31:37.787Z,-0.13
2022-12-01T07:34:05.179Z,-0.07
2022-12-01T07:36:31.730Z,-0.14
2022-12-01T07:38:58.294Z,-0.12
2022-12-01T07:41:24.747Z,-0.08
2022-12-01T07:43:51.149Z,-0.05
2022-12-01T07:46:24.193Z,0.03
2022-12-01T07:48:52.279Z,0.08
2022-12-01T07:51:18.960Z,0.10
2022-12-01T07:53:46.875Z,0.12
2022-12-01T07:56:13.609Z,0.18
2022-12-01T07:58:40.015Z,0.25
2022-12-01T08:01:18.080Z,0.27
2022-12-01T08:03:44.902Z,0.41
2022-12-01T08:06:12.231Z,0.51
2022-12-01T08:08:40.587Z,0.59
2022-12-01T08:11:12.249Z,0.69
2022-12-01T08:13:39.229Z,0.73
2022-12-01T08:16:08.069Z,0.76
2022-12-01T08:18:35.786Z,0.94
2022-12-01T08:21:02.658Z,1.01
2022-12-01T08:23:29.002Z,1.20
2022-12-01T08:25:55.482Z,1.40
2022-12-01T08:28:21.990Z,1.51
2022-12-01T08:30:48.500Z,1.70
2022-12-01T08:33:14.850Z,1.81
2022-12-01T08:35:41.211Z,1.92
2022-12-01T08:38:07.617Z,1.98
2022-12-01T08:40:34.046Z,2.02
2022-12-01T08:43:00.484Z,2.11
2022-12-01T08:45:27.001Z,2.11
2022-12-01T08:47:54.594Z,2.31
2022-12-01T08:50:21.050Z,2.58
2022-12-01T08:52:47.463Z,2.88
2022-12-01T08:55:14.134Z,3.58
2022-12-01T08:57:40.561Z,3.89
2022-12-01T09:00:07.707Z,4.90
2022-12-01T09:02:34.596Z,6.33
2022-12-01T09:05:01.037Z,6.26
2022-12-01T09:07:27.465Z,6.07
2022-12-01T09:09:53.978Z,5.39
2022-12-01T09:12:20.325Z,4.82
2022-12-01T09:14:49.712Z,4.45
2022-12-01T09:17:17.280Z,4.15
2022-12-01T09:19:44.345Z,4.11
2022-12-01T09:22:11.752Z,4.27
2022-12-01T09:24:38.430Z,4.40
2022-12-01T09:27:05.272Z,4.58
2022-12-01T09:29:32.185Z,4.70
2022-12-01T09:31:59.925Z,4.83
2022-12-01T09:34:27.768Z,4.90
2022-12-01T09:36:58.501Z,5.23
2022-12-01T09:39:25.720Z,5.13
2022-12-01T09:41:55.372Z,5.47
2022-12-01T09:44:45.383Z,5.65
2022-12-01T09:47:18.830Z,5.98
2022-12-01T09:50:15.269Z,5.58
2022-12-01T09:52:46.037Z,5.24
2022-12-01T09:55:18.794Z,5.07
2022-12-01T09:57:50.683Z,4.90
2022-12-01T10:00:24.336Z,5.38
2022-12-01T10:02:56.601Z,5.89
2022-12-01T10:05:26.870Z,7.87
2022-12-01T10:08:01.304Z,9.93
2022-12-01T10:10:30.841Z,11.55
2022-12-01T10:12:57.662Z,11.83
2022-12-01T10:15:45.710Z,12.70
2022-12-01T10:18:33.977Z,12.75
2022-12-01T10:21:42.882Z,13.54
2022-12-01T10:24:17.778Z,14.29
2022-12-01T10:27:05.827Z,14.27
2022-12-01T10:29:47.721Z,13.18
2022-12-01T10:32:21.476Z,12.72
2022-12-01T10:34:48.203Z,11.98
2022-12-01T10:37:24.301Z,12.61
2022-12-01T10:39:52.797Z,11.40
2022-12-01T10:42:35.993Z,10.20
2022-12-01T10:45:07.175Z,8.99
2022-12-01T10:47:34.012Z,7.96
2022-12-01T10:50:00.381Z,7.10
2022-12-01T10:52:38.559Z,6.61
2022-12-01T10:55:23.939Z,5.96
2022-12-01T10:57:52.304Z,5.60
2022-12-01T11:03:22.080Z,5.11
2022-12-01T11:05:54.698Z,5.03
2022-12-01T11:08:29.655Z,4.99
2022-12-01T11:10:56.730Z,4.94
2022-12-01T11:13:30.234Z,4.91
2022-12-01T11:16:02.140Z,4.90
2022-12-01T11:18:33.404Z,4.76
2022-12-01T11:21:14.925Z,4.61
2022-12-01T11:23:49.299Z,4.51
2022-12-01T11:26:23.731Z,4.31
2022-12-01T11:29:24.510Z,4.08
2022-12-01T11:31:52.963Z,4.08
2022-12-01T11:34:24.467Z,4.03
2022-12-01T11:36:54.430Z,4.08
2022-12-01T11:39:42.376Z,4.03
2022-12-01T11:42:11.672Z,4.05
2022-12-01T11:44:54.015Z,4.00
2022-12-01T11:47:24.578Z,4.01
2022-12-01T11:49:54.525Z,4.10
2022-12-01T11:52:32.369Z,4.14
2022-12-01T11:55:21.039Z,4.17
2022-12-01T11:57:51.107Z,4.13
2022-12-01T12:00:19.649Z,4.14
2022-12-01T12:03:19.207Z,4.15
2022-12-01T12:06:39.337Z,4.17
2022-12-01T12:09:15.040Z,4.22
2022-12-01T12:12:33.311Z,4.19
2022-12-01T12:15:13.002Z,4.21
2022-12-01T12:17:51.354Z,4.23
2022-12-01T12:20:24.762Z,4.13
2022-12-01T12:23:13.052Z,4.08
2022-12-01T12:26:17.118Z,4.02
2022-12-01T12:29:14.157Z,3.99
2022-12-01T12:32:05.634Z,3.93
2022-12-01T12:34:31.893Z,3.85
2022-12-01T12:37:20.526Z,3.82
2022-12-01T12:40:13.796Z,3.84
2022-12-01T12:42:42.882Z,3.85
2022-12-01T12:45:35.769Z,3.91
2022-12-01T12:48:28.511Z,3.93
2022-12-01T12:51:31.639Z,3.99
2022-12-01T12:54:23.519Z,4.02
2022-12-01T12:57:05.653Z,4.08
2022-12-01T12:59:40.823Z,4.06
2022-12-01T13:02:18.644Z,4.12
2022-12-01T13:05:02.410Z,4.10
2022-12-01T13:07:37.941Z,4.06
2022-12-01T13:10:29.372Z,4.08
2022-12-01T13:13:31.879Z,4.12
2022-12-01T13:16:00.806Z,4.09
2022-12-01T13:18:42.581Z,4.05
2022-12-01T13:21:16.313Z,4.05
2022-12-01T13:23:45.316Z,3.97
2022-12-01T13:26:12.599Z,3.98
2022-12-01T13:28:48.989Z,3.97
2022-12-01T13:31:16.919Z,3.99
2022-12-01T13:33:55.329Z,3.97
2022-12-01T13:36:45.727Z,3.99
2022-12-01T13:39:21.529Z,3.98
2022-12-01T13:42:01.331Z,3.98
2022-12-01T13:44:38.532Z,3.97
2022-12-01T13:47:24.892Z,3.93
2022-12-01T13:49:53.187Z,3.93
2022-12-01T13:52:22.652Z,3.91
2022-12-01T13:55:07.473Z,3.89
2022-12-01T13:57:36.877Z,3.92
2022-12-01T14:00:21.480Z,3.94
2022-12-01T14:03:16.730Z,3.92
2022-12-01T14:06:02.084Z,3.86
2022-12-01T14:08:31.373Z,3.80
2022-12-01T14:11:08.095Z,3.75
2022-12-01T14:13:50.391Z,3.77
2022-12-01T14:16:17.066Z,3.77
2022-12-01T14:18:51.741Z,3.76
2022-12-01T14:21:47.202Z,3.81
2022-12-01T14:24:35.615Z,3.82
2022-12-01T14:27:02.929Z,3.80
2022-12-01T14:29:33.482Z,3.80
2022-12-01T14:31:59.770Z,3.76
2022-12-01T14:34:30.280Z,3.74
2022-12-01T14:37:24.959Z,3.70
2022-12-01T14:40:13.456Z,3.67
2022-12-01T14:43:02.487Z,3.66
2022-12-01T14:45:41.290Z,3.63
2022-12-01T14:48:18.427Z,3.64
2022-12-01T14:50:52.148Z,3.64
2022-12-01T14:53:31.827Z,3.64
2022-12-01T14:56:24.716Z,3.63
2022-12-01T14:59:13.672Z,3.61
2022-12-01T15:01:40.878Z,3.58
2022-12-01T15:04:07.433Z,3.53
2022-12-01T15:06:35.869Z,3.53
2022-12-01T15:11:56.883Z,3.46
2022-12-01T15:14:47.512Z,3.43
2022-12-01T15:17:32.556Z,3.36
2022-12-01T15:19:58.933Z,3.36
2022-12-01T15:22:30.697Z,3.32
2022-12-01T15:25:15.085Z,3.28
2022-12-01T15:27:43.369Z,3.29
2022-12-01T15:30:14.574Z,3.26
2022-12-01T15:32:45.586Z,3.22
2022-12-01T15:35:23.541Z,3.20
2022-12-01T15:37:51.440Z,3.18
2022-12-01T15:43:20.332Z,3.15
2022-12-01T15:45:56.125Z,3.15
2022-12-01T15:48:32.037Z,3.15
2022-12-01T15:51:10.147Z,3.18
2022-12-01T15:53:39.860Z,3.16
2022-12-01T15:56:08.736Z,3.17
2022-12-01T15:58:47.200Z,3.14
2022-12-01T16:01:21.420Z,3.12
2022-12-01T16:03:58.348Z,3.13
2022-12-01T16:06:33.361Z,3.14
2022-12-01T16:09:07.308Z,3.07
2022-12-01T16:11:33.951Z,3.08
2022-12-01T16:14:21.372Z,3.04
2022-12-01T16:16:49.491Z,3.00
2022-12-01T16:19:18.950Z,3.03
2022-12-01T16:21:54.328Z,3.01
2022-12-01T16:24:27.254Z,3.04
2022-12-01T16:26:58.153Z,3.04
2022-12-01T16:29:26.019Z,3.07
2022-12-01T16:32:13.030Z,3.09
2022-12-01T16:34:47.172Z,3.06
2022-12-01T16:37:14.476Z,3.03
2022-12-01T16:39:40.853Z,3.07
2022-12-01T16:42:12.018Z,3.02
2022-12-01T16:44:38.393Z,2.99
2022-12-01T16:47:12.750Z,2.98
2022-12-01T16:49:39.375Z,2.98
2022-12-01T16:52:22.087Z,2.96
2022-12-01T16:54:52.261Z,2.96
2022-12-01T16:57:18.732Z,2.95
2022-12-01T16:59:45.290Z,2.96
2022-12-01T17:02:11.805Z,2.97
2022-12-01T17:04:38.172Z,2.92
2022-12-01T17:07:04.742Z,2.90
2022-12-01T17:09:31.058Z,2.91
2022-12-01T17:11:57.487Z,2.91
2022-12-01T17:14:24.263Z,2.87
2022-12-01T17:16:50.946Z,2.84
2022-12-01T17:19:17.575Z,2.85
2022-12-01T17:21:43.915Z,2.82
2022-12-01T17:24:10.300Z,2.82
2022-12-01T17:26:36.738Z,2.82
2022-12-01T17:29:03.571Z,2.81
2022-12-01T17:31:30.052Z,2.87
2022-12-01T17:33:56.497Z,2.88
2022-12-01T17:36:22.871Z,2.88
2022-12-01T17:38:50.376Z,2.87
2022-12-01T17:41:21.816Z,2.84
2022-12-01T17:43:48.261Z,2.80
2022-12-01T17:46:15.054Z,2.83
2022-12-01T17:48:43.597Z,2.85
2022-12-01T17:51:12.079Z,2.83
2022-12-01T17:53:41.522Z,2.82
2022-12-01T17:56:10.015Z,2.81
2022-12-01T17:58:36.622Z,2.82
2022-12-01T18:01:04.290Z,2.80
2022-12-01T18:03:30.757Z,2.79
2022-12-01T18:06:01.762Z,2.82
2022-12-01T18:08:30.258Z,2.83
2022-12-01T18:11:01.027Z,2.82
2022-12-01T18:13:27.759Z,2.76
2022-12-01T18:15:54.212Z,2.77
2022-12-01T18:18:20.932Z,2.77
2022-12-01T18:20:47.398Z,2.77
2022-12-01T18:23:13.909Z,2.76
2022-12-01T18:25:40.870Z,2.73
2022-12-01T18:28:07.817Z,2.76
2022-12-01T18:30:34.762Z,2.77
2022-12-01T18:33:01.713Z,2.78
2022-12-01T18:35:31.951Z,2.74
2022-12-01T18:37:58.706Z,2.73
2022-12-01T18:40:25.166Z,2.70
2022-12-01T18:42:51.599Z,2.70
2022-12-01T18:45:21.262Z,2.70
2022-12-01T18:47:47.940Z,2.70
2022-12-01T18:50:14.368Z,2.67
2022-12-01T18:52:40.781Z,2.67
2022-12-01T18:55:07.448Z,2.71
2022-12-01T18:57:33.898Z,2.66
2022-12-01T19:00:00.242Z,2.67
2022-12-01T19:02:26.766Z,2.66
2022-12-01T19:04:53.325Z,2.65
2022-12-01T19:07:20.711Z,2.65
2022-12-01T19:09:49.652Z,2.67
2022-12-01T19:12:16.214Z,2.67
2022-12-01T19:14:42.596Z,2.65
2022-12-01T19:17:08.986Z,2.72
2022-12-01T19:19:37.550Z,2.69
2022-12-01T19:22:04.221Z,2.66
2022-12-01T19:24:30.658Z,2.66
2022-12-01T19:26:57.104Z,2.67
2022-12-01T19:29:23.642Z,2.72
2022-12-01T19:31:50.032Z,2.73
2022-12-01T19:34:16.473Z,2.73
2022-12-01T19:36:42.901Z,2.67
2022-12-01T19:39:09.324Z,2.69
2022-12-01T19:41:35.826Z,2.70
2022-12-01T19:44:02.242Z,2.66
2022-12-01T19:46:29.782Z,2.66
2022-12-01T19:49:00.260Z,2.68
2022-12-01T19:51:30.599Z,2.67
2022-12-01T19:53:57.446Z,2.65
2022-12-01T19:56:24.603Z,2.66
2022-12-01T19:58:51.158Z,2.69
2022-12-01T20:01:19.148Z,2.66
2022-12-01T20:03:47.717Z,2.64
2022-12-01T20:06:17.635Z,2.59
2022-12-01T20:08:44.684Z,2.58
2022-12-01T20:11:11.804Z,2.58
2022-12-01T20:13:39.817Z,2.63
2022-12-01T20:16:08.270Z,2.59
2022-12-01T20:18:35.878Z,2.59
2022-12-01T20:21:03.226Z,2.58
2022-12-01T20:23:30.114Z,2.59
2022-12-01T20:26:01.514Z,2.59
2022-12-01T20:28:27.882Z,2.58
2022-12-01T20:30:54.488Z,2.58
2022-12-01T20:33:21.138Z,2.57
2022-12-01T20:35:47.506Z,2.53
2022-12-01T20:38:13.937Z,2.51
2022-12-01T20:40:40.450Z,2.48
2022-12-01T20:43:06.813Z,2.47
2022-12-01T20:45:33.404Z,2.46
2022-12-01T20:47:59.775Z,2.44
2022-12-01T20:50:26.210Z,2.42
2022-12-01T20:52:52.573Z,2.39
2022-12-01T20:55:19.026Z,2.43
2022-12-01T20:57:45.824Z,2.47
2022-12-01T21:00:13.555Z,2.41
2022-12-01T21:02:40.215Z,2.37
2022-12-01T21:05:06.788Z,2.36
2022-12-01T21:07:33.198Z,2.37
2022-12-01T21:09:59.618Z,2.36
2022-12-01T21:12:47.848Z,2.40
2022-12-01T21:15:29.188Z,2.39
2022-12-01T21:17:59.246Z,2.38
2022-12-01T21:20:27.939Z,2.41
2022-12-01T21:22:59.839Z,2.38
2022-12-01T21:25:26.337Z,2.34
2022-12-01T21:27:56.458Z,2.32
2022-12-01T21:30:29.631Z,2.30
2022-12-01T21:33:15.609Z,2.25
2022-12-01T21:35:41.994Z,2.26
2022-12-01T21:38:12.267Z,2.26
2022-12-01T21:40:41.926Z,2.24
2022-12-01T21:43:23.207Z,2.22
2022-12-01T21:45:53.689Z,2.23
2022-12-01T21:48:24.470Z,2.22
2022-12-01T21:50:59.392Z,2.19
2022-12-01T21:53:32.103Z,2.17
2022-12-01T21:55:58.460Z,2.08
2022-12-01T21:58:28.079Z,2.07
2022-12-01T22:00:59.126Z,2.08
2022-12-01T22:03:31.654Z,2.12
2022-12-01T22:06:28.252Z,2.12
2022-12-01T22:08:50.599Z,2.08
2022-12-01T22:11:22.403Z,2.08
2022-12-01T22:13:51.534Z,2.12
2022-12-01T22:16:30.190Z,2.10
2022-12-01T22:19:02.384Z,2.11
2022-12-01T22:21:34.926Z,2.12
2022-12-01T22:24:19.994Z,2.14
2022-12-01T22:26:49.526Z,2.08
2022-12-01T22:29:33.717Z,2.09
2022-12-01T22:32:12.259Z,2.07
2022-12-01T22:34:40.030Z,2.04
2022-12-01T22:37:16.511Z,2.04
2022-12-01T22:39:43.081Z,2.02
2022-12-01T22:42:19.041Z,2.00
2022-12-01T22:44:45.539Z,2.02
2022-12-01T22:47:12.219Z,2.04
2022-12-01T22:49:38.562Z,2.09
2022-12-01T22:52:18.746Z,2.05
2022-12-01T22:54:48.862Z,2.06
2022-12-01T22:57:35.168Z,2.01
2022-12-01T23:00:13.939Z,2.01
2022-12-01T23:02:40.487Z,1.99
2022-12-01T23:05:28.769Z,1.99
2022-12-01T23:07:56.977Z,2.00
2022-12-01T23:10:30.290Z,1.97
2022-12-01T23:13:00.430Z,1.97
2022-12-01T23:15:36.205Z,1.95
2022-12-01T23:18:13.506Z,1.94
2022-12-01T23:20:41.917Z,1.94
2022-12-01T23:23:17.833Z,1.98
2022-12-01T23:25:45.880Z,1.95
2022-12-01T23:28:13.558Z,1.94
2022-12-01T23:30:42.072Z,1.93
2022-12-01T23:33:08.370Z,1.93
2022-12-01T23:35:55.124Z,1.93
2022-12-01T23:38:29.571Z,1.91
2022-12-01T23:40:59.010Z,1.90
2022-12-01T23:43:28.625Z,1.92
2022-12-01T23:46:19.661Z,1.93
2022-12-01T23:48:49.370Z,1.91
2022-12-01T23:51:19.959Z,1.90
2022-12-01T23:53:46.615Z,1.91
2022-12-01T23:56:24.709Z,1.92
2022-12-01T23:58:52.692Z,1.88
